Time;durP1;ratioP1;P1;durP2;ratioP2;P2;SDS_P1;SDS_P2;PMS_P1;PMS_P2;Temp;Humidity;BMP_temperature;BMP_pressure;BME280_temperature;BME280_humidity;BME280_pressure;Samples;Min_cycle;Max_cycle;Signal;HPM_P1;HPM_P2
2023/08/19 00:01:50;;;;;;;11.77;10.93;;;22.80;1.00;;;;;;5057902;28;20474;-75
2023/08/19 00:04:17;;;;;;;12.70;11.70;;;22.80;1.00;;;;;;5055454;28;20456;-77
2023/08/19 00:06:45;;;;;;;12.23;11.20;;;22.70;1.00;;;;;;5059541;28;20912;-76
2023/08/19 00:09:12;;;;;;;12.63;11.73;;;22.70;1.00;;;;;;5057350;28;20531;-76
2023/08/19 00:11:40;;;;;;;13.40;12.20;;;22.70;1.00;;;;;;5061792;28;20923;-76
2023/08/19 00:14:08;;;;;;;12.70;11.80;;;22.70;1.00;;;;;;5055299;28;20540;-75
2023/08/19 00:16:36;;;;;;;12.60;11.70;;;22.70;1.00;;;;;;5056879;28;20467;-77
2023/08/19 00:19:04;;;;;;;13.20;12.00;;;22.60;1.00;;;;;;5056910;28;20547;-75
2023/08/19 00:21:31;;;;;;;13.47;12.10;;;22.60;1.00;;;;;;5056218;28;20473;-77
2023/08/19 00:23:59;;;;;;;13.03;12.07;;;22.60;1.00;;;;;;5057613;28;20562;-77
2023/08/19 00:26:26;;;;;;;12.40;11.50;;;22.60;1.00;;;;;;5063853;28;20906;-78
2023/08/19 00:28:53;;;;;;;12.93;12.03;;;22.60;1.00;;;;;;5052503;28;20554;-77
2023/08/19 00:31:23;;;;;;;12.47;11.43;;;22.50;1.00;;;;;;5060681;28;20481;-76
2023/08/19 00:33:49;;;;;;;13.03;12.03;;;22.50;1.00;;;;;;5055455;28;20453;-77
2023/08/19 00:36:16;;;;;;;12.63;11.37;;;22.50;1.00;;;;;;5057022;28;20468;-75
2023/08/19 00:38:44;;;;;;;12.73;11.73;;;22.40;1.00;;;;;;5053067;28;20552;-77
2023/08/19 00:41:11;;;;;;;14.30;13.00;;;22.50;1.00;;;;;;5052458;28;20888;-74
2023/08/19 00:43:38;;;;;;;14.17;13.00;;;22.50;1.00;;;;;;5055255;28;20811;-75
2023/08/19 00:46:07;;;;;;;12.73;11.67;;;22.40;1.00;;;;;;5058346;28;20553;-76
2023/08/19 00:48:36;;;;;;;13.83;12.63;;;22.40;1.00;;;;;;5056787;28;20461;-76
2023/08/19 00:51:05;;;;;;;12.70;11.70;;;22.40;1.00;;;;;;5054813;28;20495;-77
2023/08/19 00:53:33;;;;;;;12.47;11.47;;;22.40;1.00;;;;;;5056342;28;20520;-76
2023/08/19 00:56:00;;;;;;;13.30;12.20;;;22.50;1.00;;;;;;5057685;28;20489;-76
2023/08/19 00:58:27;;;;;;;12.57;11.67;;;22.40;1.00;;;;;;5066671;28;20465;-79
2023/08/19 01:00:55;;;;;;;13.10;12.00;;;22.40;1.00;;;;;;5065595;28;21064;-77
2023/08/19 01:03:21;;;;;;;13.93;12.83;;;22.40;1.00;;;;;;5062809;28;20952;-77
2023/08/19 01:06:00;;;;;;;14.00;12.80;;;22.30;1.00;;;;;;5063526;28;21209;-77
2023/08/19 01:08:34;;;;;;;13.97;12.87;;;22.30;1.00;;;;;;5051031;28;20509;-76
2023/08/19 01:11:07;;;;;;;14.70;13.33;;;22.30;1.00;;;;;;5056631;28;20492;-77
2023/08/19 01:13:43;;;;;;;13.67;12.57;;;22.30;1.00;;;;;;5058623;28;20594;-77
2023/08/19 01:16:17;;;;;;;13.67;12.47;;;22.30;1.00;;;;;;5057379;28;20590;-75
2023/08/19 01:18:45;;;;;;;12.63;11.63;;;22.40;1.00;;;;;;5056892;28;21950;-75
2023/08/19 01:21:14;;;;;;;14.73;13.63;;;22.40;1.00;;;;;;5053459;28;20476;-75
2023/08/19 01:23:46;;;;;;;13.47;12.37;;;22.30;1.00;;;;;;5055988;28;21023;-75
2023/08/19 01:26:15;;;;;;;12.90;11.90;;;22.30;1.00;;;;;;5057425;28;20986;-75
2023/08/19 01:28:41;;;;;;;12.90;11.90;;;22.20;1.00;;;;;;5051382;28;20984;-72
2023/08/19 01:31:08;;;;;;;14.00;12.70;;;22.20;1.00;;;;;;5051754;28;20471;-75
2023/08/19 01:33:37;;;;;;;13.90;12.80;;;22.20;1.00;;;;;;5058357;28;20452;-74
2023/08/19 01:36:12;;;;;;;12.87;11.90;;;22.10;1.00;;;;;;5053398;28;20540;-76
2023/08/19 01:38:48;;;;;;;13.60;12.60;;;22.10;1.00;;;;;;5051873;28;20530;-75
2023/08/19 01:41:17;;;;;;;13.43;12.30;;;22.10;1.00;;;;;;5052947;28;20573;-75
2023/08/19 01:43:45;;;;;;;13.77;12.70;;;22.00;1.00;;;;;;5052647;28;20466;-74
2023/08/19 01:46:12;;;;;;;13.30;12.17;;;22.00;1.00;;;;;;5050894;28;20486;-75
2023/08/19 01:48:39;;;;;;;13.47;12.37;;;22.00;1.00;;;;;;5054677;28;20509;-75
2023/08/19 01:51:06;;;;;;;13.67;12.53;;;22.00;1.00;;;;;;5055286;28;20483;-74
2023/08/19 01:53:33;;;;;;;13.90;12.80;;;21.90;1.00;;;;;;5052756;28;20844;-76
2023/08/19 01:56:00;;;;;;;13.93;12.73;;;21.80;1.00;;;;;;5059260;28;20559;-74
2023/08/19 01:58:28;;;;;;;14.10;12.77;;;21.90;1.00;;;;;;5051691;28;20450;-74
2023/08/19 02:00:55;;;;;;;14.70;13.30;;;21.80;1.00;;;;;;5050623;28;20550;-74
2023/08/19 02:03:22;;;;;;;13.90;12.70;;;21.90;1.00;;;;;;5056561;28;20625;-73
2023/08/19 02:05:49;;;;;;;14.60;13.40;;;21.90;1.00;;;;;;5054532;28;20507;-76
2023/08/19 02:08:15;;;;;;;14.37;13.10;;;21.80;1.00;;;;;;5053002;28;20601;-75
2023/08/19 02:10:42;;;;;;;14.57;13.17;;;21.90;1.00;;;;;;5062278;28;20495;-74
2023/08/19 02:13:09;;;;;;;14.40;13.13;;;21.90;1.00;;;;;;5061410;28;21042;-75
2023/08/19 02:15:38;;;;;;;14.30;13.10;;;21.80;1.00;;;;;;5056770;28;20537;-76
2023/08/19 02:18:05;;;;;;;15.47;14.17;;;21.80;1.00;;;;;;5050700;28;20578;-76
2023/08/19 02:20:32;;;;;;;14.77;13.67;;;21.70;1.00;;;;;;5048757;28;20474;-75
2023/08/19 02:23:01;;;;;;;14.10;12.90;;;21.70;1.00;;;;;;5055588;28;20458;-74
2023/08/19 02:25:28;;;;;;;14.63;13.33;;;21.70;1.00;;;;;;5053912;28;20937;-74
2023/08/19 02:27:55;;;;;;;14.80;13.50;;;21.70;1.00;;;;;;5054501;28;20582;-76
2023/08/19 02:30:22;;;;;;;14.30;12.90;;;21.70;1.00;;;;;;5054284;28;20650;-75
2023/08/19 02:32:50;;;;;;;15.57;14.17;;;21.70;1.00;;;;;;5055536;28;20459;-74
2023/08/19 02:35:18;;;;;;;15.37;14.13;;;21.70;1.00;;;;;;5052689;28;20551;-76
2023/08/19 02:37:45;;;;;;;15.47;14.07;;;21.70;1.00;;;;;;5051744;28;20994;-76
2023/08/19 02:40:13;;;;;;;14.10;12.97;;;21.70;1.00;;;;;;5051680;28;20474;-76
2023/08/19 02:42:40;;;;;;;15.53;14.23;;;21.70;1.00;;;;;;5053439;28;20571;-77
2023/08/19 02:45:08;;;;;;;14.53;13.33;;;21.70;1.00;;;;;;5052119;28;20550;-76
2023/08/19 02:47:34;;;;;;;14.67;13.47;;;21.70;1.00;;;;;;5051881;28;21353;-76
2023/08/19 02:50:03;;;;;;;14.43;13.23;;;21.70;1.00;;;;;;5052578;28;20468;-76
2023/08/19 02:52:30;;;;;;;14.93;13.60;;;21.70;1.00;;;;;;5051108;28;20540;-76
2023/08/19 02:54:57;;;;;;;15.70;14.43;;;21.60;1.00;;;;;;5053551;28;20541;-76
2023/08/19 02:57:24;;;;;;;15.30;14.00;;;21.60;1.00;;;;;;5054384;28;20947;-79
2023/08/19 02:59:51;;;;;;;15.53;14.33;;;21.60;1.00;;;;;;5050817;28;20466;-75
2023/08/19 03:02:18;;;;;;;15.37;14.10;;;21.50;1.00;;;;;;5051465;28;21021;-75
2023/08/19 03:04:45;;;;;;;16.43;15.13;;;21.50;1.00;;;;;;5048518;28;20538;-76
2023/08/19 03:07:13;;;;;;;15.83;14.43;;;21.50;1.00;;;;;;5053746;28;20485;-75
2023/08/19 03:09:44;;;;;;;16.47;15.07;;;21.50;1.00;;;;;;5051251;28;20937;-75
2023/08/19 03:12:10;;;;;;;15.57;14.37;;;21.50;1.00;;;;;;5050432;28;20474;-75
2023/08/19 03:14:41;;;;;;;16.17;14.63;;;21.40;1.00;;;;;;5053058;28;20574;-76
2023/08/19 03:17:07;;;;;;;15.87;14.47;;;21.40;1.00;;;;;;5051787;28;20446;-76
2023/08/19 03:19:35;;;;;;;16.13;14.83;;;21.40;1.00;;;;;;5067640;28;20472;-77
2023/08/19 03:22:02;;;;;;;17.53;15.93;;;21.40;1.00;;;;;;5059587;28;20513;-76
2023/08/19 03:24:30;;;;;;;15.20;13.90;;;21.40;1.00;;;;;;5060763;28;20479;-75
2023/08/19 03:26:57;;;;;;;16.23;14.90;;;21.40;1.00;;;;;;5060503;28;20490;-76
2023/08/19 03:29:25;;;;;;;16.40;14.90;;;21.40;1.00;;;;;;5055261;28;20953;-76
2023/08/19 03:31:52;;;;;;;16.37;14.97;;;21.30;1.00;;;;;;5055763;28;20467;-76
2023/08/19 03:34:19;;;;;;;16.50;15.20;;;21.40;1.00;;;;;;5061740;28;20621;-76
2023/08/19 03:36:47;;;;;;;16.57;15.17;;;21.30;1.00;;;;;;5052124;28;20962;-75
2023/08/19 03:39:14;;;;;;;17.03;15.63;;;21.30;1.00;;;;;;5053881;28;20508;-75
2023/08/19 03:41:42;;;;;;;15.90;14.70;;;21.20;1.00;;;;;;5050854;28;21055;-76
2023/08/19 03:44:09;;;;;;;15.97;14.57;;;21.20;1.00;;;;;;5046232;28;20482;-75
2023/08/19 03:46:36;;;;;;;16.90;15.40;;;21.10;1.00;;;;;;5054183;28;20881;-75
2023/08/19 03:49:03;;;;;;;16.40;15.20;;;21.20;1.00;;;;;;5053015;28;20985;-75
2023/08/19 03:51:31;;;;;;;17.87;16.37;;;21.10;1.00;;;;;;5048016;28;20456;-76
2023/08/19 03:53:58;;;;;;;18.17;16.63;;;21.10;1.00;;;;;;5052140;28;20557;-74
2023/08/19 03:56:25;;;;;;;17.10;15.63;;;21.00;1.00;;;;;;5047528;28;20453;-75
2023/08/19 03:58:53;;;;;;;16.80;15.50;;;21.00;1.00;;;;;;5051802;28;21799;-74
2023/08/19 04:01:20;;;;;;;16.07;14.67;;;21.00;1.00;;;;;;5045880;28;20483;-75
2023/08/19 04:03:47;;;;;;;16.07;14.70;;;21.00;1.00;;;;;;5045252;28;20476;-75
2023/08/19 04:06:14;;;;;;;17.50;16.13;;;21.00;1.00;;;;;;5061999;28;20545;-74
2023/08/19 04:08:40;;;;;;;18.03;16.63;;;21.00;1.00;;;;;;5062628;28;21012;-75
2023/08/19 04:11:08;;;;;;;18.90;17.30;;;21.00;1.00;;;;;;5062989;28;20576;-76
2023/08/19 04:13:35;;;;;;;17.30;15.80;;;21.00;1.00;;;;;;5061182;28;20461;-75
2023/08/19 04:16:06;;;;;;;19.73;18.20;;;21.00;1.00;;;;;;5059191;28;20476;-76
2023/08/19 04:18:33;;;;;;;17.40;15.97;;;21.00;1.00;;;;;;5060829;28;20870;-75
2023/08/19 04:21:03;;;;;;;17.80;16.20;;;21.00;1.00;;;;;;5051788;28;20462;-75
2023/08/19 04:23:30;;;;;;;17.93;16.43;;;21.00;1.00;;;;;;5054084;28;20601;-75
2023/08/19 04:25:57;;;;;;;17.07;15.67;;;21.10;1.00;;;;;;5052685;28;21038;-74
2023/08/19 04:28:25;;;;;;;17.70;16.20;;;21.10;1.00;;;;;;5055243;28;20466;-74
2023/08/19 04:30:53;;;;;;;17.77;16.20;;;21.10;1.00;;;;;;5057961;28;20468;-74
2023/08/19 04:33:21;;;;;;;18.73;16.90;;;21.10;1.00;;;;;;5063741;28;20549;-74
2023/08/19 04:35:49;;;;;;;18.23;16.50;;;21.20;1.00;;;;;;5061148;28;20458;-74
2023/08/19 04:38:16;;;;;;;17.00;15.60;;;21.20;1.00;;;;;;5060471;28;20466;-74
2023/08/19 04:40:43;;;;;;;17.87;16.47;;;21.20;1.00;;;;;;5059443;28;20462;-74
2023/08/19 04:43:11;;;;;;;18.33;16.77;;;21.30;1.00;;;;;;5059494;28;20459;-74
2023/08/19 04:45:38;;;;;;;18.20;16.60;;;21.30;1.00;;;;;;5057108;28;20613;-74
2023/08/19 04:48:06;;;;;;;18.10;16.70;;;21.40;1.00;;;;;;5060811;28;21342;-76
2023/08/19 04:50:34;;;;;;;17.60;16.00;;;21.40;1.00;;;;;;5060698;28;20466;-75
2023/08/19 04:53:01;;;;;;;18.47;16.97;;;21.40;1.00;;;;;;5059546;28;20473;-75
2023/08/19 04:55:28;;;;;;;19.00;17.47;;;21.40;1.00;;;;;;5060467;28;20844;-75
2023/08/19 04:57:55;;;;;;;18.87;17.20;;;21.40;1.00;;;;;;5059422;28;20482;-74
2023/08/19 05:00:22;;;;;;;18.40;16.90;;;21.50;1.00;;;;;;5054344;28;20542;-75
2023/08/19 05:02:49;;;;;;;19.00;17.40;;;21.50;1.00;;;;;;5052948;28;20913;-73
2023/08/19 05:05:16;;;;;;;19.30;17.70;;;21.60;1.00;;;;;;5049575;28;20479;-74
2023/08/19 05:07:45;;;;;;;18.43;16.83;;;21.60;1.00;;;;;;5051028;28;20538;-74
2023/08/19 05:10:11;;;;;;;18.70;17.13;;;21.70;1.00;;;;;;5049137;28;21246;-73
2023/08/19 05:12:39;;;;;;;19.10;17.40;;;21.90;1.00;;;;;;5055822;28;20546;-73
2023/08/19 05:15:06;;;;;;;18.00;16.40;;;21.90;1.00;;;;;;5061108;28;20494;-74
2023/08/19 05:17:33;;;;;;;18.23;16.63;;;22.10;1.00;;;;;;5062550;28;20468;-74
2023/08/19 05:20:00;;;;;;;19.80;18.20;;;22.20;1.00;;;;;;5062777;28;21826;-75
2023/08/19 05:22:27;;;;;;;18.27;16.67;;;22.40;1.00;;;;;;5058845;28;20460;-75
2023/08/19 05:24:55;;;;;;;19.77;17.87;;;22.40;1.00;;;;;;5060284;28;20932;-74
2023/08/19 05:27:22;;;;;;;19.30;17.80;;;22.50;1.00;;;;;;5059850;28;20976;-75
2023/08/19 05:29:50;;;;;;;19.13;17.53;;;22.70;1.00;;;;;;5052886;28;20778;-74
2023/08/19 05:32:17;;;;;;;19.87;18.17;;;22.80;1.00;;;;;;5051682;28;20963;-75
2023/08/19 05:34:44;;;;;;;19.20;17.53;;;22.80;1.00;;;;;;5055925;28;20558;-73
2023/08/19 05:37:10;;;;;;;20.63;18.90;;;22.90;1.00;;;;;;5062081;28;20571;-74
2023/08/19 05:39:37;;;;;;;21.07;19.37;;;22.70;1.00;;;;;;5055457;28;20477;-75
2023/08/19 05:42:06;;;;;;;20.20;18.60;;;22.70;1.00;;;;;;5058110;28;21073;-74
2023/08/19 05:44:33;;;;;;;20.23;18.50;;;22.70;1.00;;;;;;5057442;28;20472;-76
2023/08/19 05:47:00;;;;;;;19.17;17.57;;;22.90;1.00;;;;;;5061786;28;20606;-74
2023/08/19 05:49:27;;;;;;;19.90;18.40;;;22.90;1.00;;;;;;5059647;28;20604;-74
2023/08/19 05:51:54;;;;;;;19.30;17.80;;;23.00;1.00;;;;;;5056051;28;20962;-74
2023/08/19 05:54:21;;;;;;;21.30;19.43;;;23.00;1.00;;;;;;5056573;28;20465;-75
2023/08/19 05:56:48;;;;;;;19.33;17.73;;;23.10;1.00;;;;;;5060037;28;20481;-75
2023/08/19 05:59:16;;;;;;;19.17;17.60;;;23.20;1.00;;;;;;5059955;28;20601;-75
2023/08/19 06:01:43;;;;;;;19.63;18.13;;;23.30;1.00;;;;;;5056716;28;21088;-75
2023/08/19 06:04:10;;;;;;;19.60;18.10;;;23.50;1.00;;;;;;5048901;27;20548;-75
2023/08/19 06:06:36;;;;;;;20.17;18.57;;;23.50;1.00;;;;;;5055050;28;20863;-75
2023/08/19 06:09:04;;;;;;;19.50;17.90;;;23.40;1.00;;;;;;5057910;28;21189;-75
2023/08/19 06:11:31;;;;;;;20.00;18.20;;;23.50;1.00;;;;;;5056519;28;20474;-74
2023/08/19 06:13:58;;;;;;;19.47;17.57;;;23.50;1.00;;;;;;5057394;28;20616;-73
2023/08/19 06:16:27;;;;;;;19.50;17.80;;;23.60;1.00;;;;;;5068188;28;20478;-74
2023/08/19 06:18:54;;;;;;;19.90;18.10;;;23.60;1.00;;;;;;5057177;28;20493;-74
2023/08/19 06:21:21;;;;;;;19.77;17.87;;;23.60;1.00;;;;;;5062587;28;20464;-74
2023/08/19 06:23:48;;;;;;;19.77;18.17;;;23.60;1.00;;;;;;5053810;28;20565;-75
2023/08/19 06:26:14;;;;;;;20.00;18.30;;;23.50;1.00;;;;;;5055864;28;20556;-74
2023/08/19 06:28:43;;;;;;;21.00;19.27;;;23.40;1.00;;;;;;5036171;28;20486;-75
2023/08/19 06:31:11;;;;;;;21.13;19.13;;;23.40;1.00;;;;;;5061061;28;21376;-74
2023/08/19 06:33:40;;;;;;;19.30;17.83;;;23.40;1.00;;;;;;5061541;28;20469;-74
2023/08/19 06:36:10;;;;;;;22.80;21.07;;;23.40;1.00;;;;;;5058102;28;20995;-74
2023/08/19 06:38:42;;;;;;;22.33;20.23;;;23.30;1.00;;;;;;5062843;28;20544;-74
2023/08/19 06:41:10;;;;;;;19.63;18.00;;;23.20;1.00;;;;;;5056424;28;20477;-73
2023/08/19 06:43:38;;;;;;;19.27;17.70;;;23.30;1.00;;;;;;5056889;28;20665;-74
2023/08/19 06:46:08;;;;;;;20.33;18.53;;;23.20;1.00;;;;;;5051986;28;22012;-74
2023/08/19 06:48:37;;;;;;;20.90;19.00;;;23.20;1.00;;;;;;5056031;28;20456;-74
2023/08/19 06:51:06;;;;;;;22.20;20.50;;;23.10;1.00;;;;;;5058369;28;20457;-75
2023/08/19 06:53:34;;;;;;;21.60;19.77;;;23.20;1.00;;;;;;5056181;28;20473;-74
2023/08/19 06:56:08;;;;;;;21.73;20.03;;;23.20;1.00;;;;;;5056083;28;20611;-74
2023/08/19 06:58:42;;;;;;;23.87;21.93;;;23.20;1.00;;;;;;5052913;28;20558;-75
2023/08/19 07:01:21;;;;;;;22.07;20.27;;;23.30;1.00;;;;;;5046317;28;20628;-74
2023/08/19 07:03:52;;;;;;;21.00;19.40;;;23.30;1.00;;;;;;5056777;28;20652;-73
2023/08/19 07:06:22;;;;;;;23.80;21.87;;;23.40;1.00;;;;;;5054380;28;20480;-73
2023/08/19 07:08:51;;;;;;;21.17;19.37;;;23.60;1.00;;;;;;5057935;28;20554;-73
2023/08/19 07:11:18;;;;;;;22.13;20.40;;;23.60;1.00;;;;;;5051942;28;20532;-73
2023/08/19 07:13:46;;;;;;;23.10;21.13;;;23.60;1.00;;;;;;5052781;28;21019;-75
2023/08/19 07:16:16;;;;;;;22.50;20.60;;;23.60;1.00;;;;;;5049851;28;20510;-74
2023/08/19 07:18:48;;;;;;;23.20;21.10;;;23.60;1.00;;;;;;5048811;28;20908;-75
2023/08/19 07:21:16;;;;;;;21.10;19.40;;;23.70;1.00;;;;;;5048823;28;20718;-74
2023/08/19 07:23:46;;;;;;;22.27;20.43;;;23.90;1.00;;;;;;5052617;28;20949;-75
2023/08/19 07:26:15;;;;;;;22.00;19.90;;;24.10;1.00;;;;;;5056971;28;21630;-75
2023/08/19 07:28:42;;;;;;;21.17;19.47;;;24.30;1.00;;;;;;5054152;28;20495;-76
2023/08/19 07:31:10;;;;;;;21.20;19.60;;;24.40;1.00;;;;;;5053268;28;20490;-75
2023/08/19 07:33:37;;;;;;;22.30;20.40;;;24.60;1.00;;;;;;5054551;28;20612;-75
2023/08/19 07:36:05;;;;;;;23.30;21.27;;;24.70;1.00;;;;;;5061190;28;20929;-75
2023/08/19 07:38:32;;;;;;;20.53;18.90;;;24.60;1.00;;;;;;5058835;28;20463;-76
2023/08/19 07:41:02;;;;;;;22.10;20.40;;;24.70;1.00;;;;;;5068882;28;20472;-76
2023/08/19 07:43:29;;;;;;;20.83;18.73;;;24.90;1.00;;;;;;5065839;28;21057;-75
2023/08/19 07:45:56;;;;;;;20.57;18.80;;;25.10;1.00;;;;;;5068843;28;20579;-75
2023/08/19 07:48:23;;;;;;;20.67;18.87;;;25.30;1.00;;;;;;5068199;28;20540;-75
2023/08/19 07:50:50;;;;;;;19.93;18.33;;;25.40;1.00;;;;;;5057698;28;20921;-75
2023/08/19 07:53:17;;;;;;;19.13;17.73;;;25.70;1.00;;;;;;5060290;28;20562;-75
2023/08/19 07:55:44;;;;;;;19.10;17.70;;;25.90;1.00;;;;;;5064147;28;20481;-76
2023/08/19 07:58:12;;;;;;;20.47;18.87;;;26.10;1.00;;;;;;5062736;28;20544;-75
2023/08/19 08:00:39;;;;;;;21.13;19.43;;;26.30;1.00;;;;;;5064499;28;20470;-75
2023/08/19 08:03:07;;;;;;;19.43;18.03;;;26.30;1.00;;;;;;5061125;28;20511;-76
2023/08/19 08:05:33;;;;;;;19.73;18.20;;;26.30;1.00;;;;;;5064795;28;20485;-75
2023/08/19 08:08:00;;;;;;;17.30;16.00;;;26.40;1.00;;;;;;5055422;28;21236;-76
2023/08/19 08:10:27;;;;;;;19.00;17.50;;;26.60;1.00;;;;;;5064798;27;20492;-75
2023/08/19 08:12:54;;;;;;;19.23;17.80;;;26.70;1.00;;;;;;5063109;28;20447;-75
2023/08/19 08:15:22;;;;;;;18.57;16.97;;;26.80;1.00;;;;;;5051318;28;20678;-75
2023/08/19 08:17:49;;;;;;;17.10;15.83;;;26.90;1.00;;;;;;5056723;28;20528;-75
2023/08/19 08:20:17;;;;;;;19.17;17.70;;;27.00;1.00;;;;;;5054235;28;21106;-75
2023/08/19 08:22:44;;;;;;;18.10;16.80;;;27.10;1.00;;;;;;5058705;28;20559;-76
2023/08/19 08:25:11;;;;;;;17.73;16.33;;;27.20;1.00;;;;;;5055474;28;20574;-75
2023/08/19 08:27:38;;;;;;;18.00;16.70;;;27.40;1.00;;;;;;5063916;28;20456;-75
2023/08/19 08:30:07;;;;;;;17.70;16.27;;;27.50;1.00;;;;;;5060064;28;20563;-75
2023/08/19 08:32:35;;;;;;;16.10;14.90;;;27.70;1.00;;;;;;5065329;28;20465;-74
2023/08/19 08:35:02;;;;;;;18.23;16.83;;;27.90;1.00;;;;;;5063963;28;21049;-75
2023/08/19 08:37:29;;;;;;;17.63;16.23;;;28.10;1.00;;;;;;5062942;28;20505;-75
2023/08/19 08:39:56;;;;;;;16.40;15.20;;;28.20;1.00;;;;;;5067547;28;20540;-75
2023/08/19 08:42:24;;;;;;;16.60;15.50;;;28.30;1.00;;;;;;5054730;28;20450;-74
2023/08/19 08:44:52;;;;;;;16.23;15.07;;;28.20;1.00;;;;;;5061272;28;21123;-74
2023/08/19 08:47:23;;;;;;;15.73;14.53;;;28.20;1.00;;;;;;5056047;28;20942;-76
2023/08/19 08:49:53;;;;;;;16.60;15.50;;;28.40;1.00;;;;;;5059020;28;20914;-75
2023/08/19 08:52:21;;;;;;;15.90;14.73;;;28.50;1.00;;;;;;5057954;28;20486;-74
2023/08/19 08:54:52;;;;;;;16.10;15.00;;;28.70;1.00;;;;;;5062442;28;20495;-74
2023/08/19 08:57:20;;;;;;;15.43;14.23;;;28.80;1.00;;;;;;5068807;28;20450;-73
2023/08/19 08:59:47;;;;;;;16.00;14.67;;;29.00;1.00;;;;;;5066469;28;20595;-75
2023/08/19 09:02:16;;;;;;;15.00;13.60;;;29.10;1.00;;;;;;5066817;28;20489;-75
2023/08/19 09:04:45;;;;;;;14.67;13.47;;;29.10;1.00;;;;;;5065607;28;20556;-74
2023/08/19 09:07:21;;;;;;;13.33;12.10;;;29.20;1.00;;;;;;5063986;28;20973;-76
2023/08/19 09:09:49;;;;;;;12.67;11.87;;;29.20;1.00;;;;;;5064976;28;21061;-74
2023/08/19 09:12:16;;;;;;;13.23;12.23;;;29.40;1.00;;;;;;5061532;28;20553;-74
2023/08/19 09:14:44;;;;;;;13.17;12.17;;;29.40;1.00;;;;;;5064696;28;20573;-75
2023/08/19 09:17:12;;;;;;;13.77;12.80;;;29.50;1.00;;;;;;5062232;28;20469;-74
2023/08/19 09:19:39;;;;;;;13.57;12.50;;;29.60;1.00;;;;;;5066286;28;20464;-73
2023/08/19 09:22:21;;;;;;;13.80;12.80;;;29.70;1.00;;;;;;5062670;28;22054;-74
2023/08/19 09:24:48;;;;;;;12.07;11.10;;;29.80;1.00;;;;;;5063258;28;20499;-74
2023/08/19 09:27:19;;;;;;;11.93;11.10;;;30.00;1.00;;;;;;5063620;28;20478;-74
2023/08/19 09:29:50;;;;;;;12.17;11.37;;;30.10;1.00;;;;;;5055028;28;21634;-74
2023/08/19 09:32:18;;;;;;;12.80;11.70;;;30.30;1.00;;;;;;5051486;28;20462;-76
2023/08/19 09:34:44;;;;;;;12.30;11.30;;;30.60;1.00;;;;;;5055360;28;20478;-73
2023/08/19 09:37:11;;;;;;;14.37;13.27;;;31.00;1.00;;;;;;5051726;28;20459;-76
2023/08/19 09:39:40;;;;;;;12.53;11.67;;;32.20;1.00;;;;;;5050496;28;20481;-75
2023/08/19 09:42:10;;;;;;;11.40;10.43;;;33.40;1.00;;;;;;5057292;27;20946;-75
2023/08/19 09:44:40;;;;;;;12.07;11.20;;;34.80;1.00;;;;;;5056958;28;20471;-73
2023/08/19 09:47:07;;;;;;;9.70;9.10;;;35.90;1.00;;;;;;5053825;28;21010;-78
2023/08/19 09:49:37;;;;;;;10.77;9.90;;;36.40;1.00;;;;;;5053914;28;20459;-77
2023/08/19 09:52:05;;;;;;;10.10;9.40;;;37.20;1.00;;;;;;5059847;28;20480;-77
2023/08/19 09:54:32;;;;;;;10.80;10.00;;;38.00;1.00;;;;;;5057418;28;21075;-78
2023/08/19 09:57:00;;;;;;;10.20;9.50;;;38.00;1.00;;;;;;5061426;28;20546;-77
2023/08/19 09:59:27;;;;;;;10.37;9.53;;;38.40;1.00;;;;;;5059611;28;20541;-77
2023/08/19 10:01:54;;;;;;;9.70;9.00;;;39.10;1.00;;;;;;5064602;28;20532;-79
2023/08/19 10:04:22;;;;;;;11.30;10.50;;;39.50;1.00;;;;;;5064182;28;20491;-77
2023/08/19 10:06:52;;;;;;;10.83;10.13;;;39.70;1.00;;;;;;5065407;28;20542;-78
2023/08/19 10:09:24;;;;;;;10.17;9.47;;;39.10;1.00;;;;;;5063613;28;20475;-79
2023/08/19 10:11:54;;;;;;;9.90;9.20;;;39.00;1.00;;;;;;5055023;28;20448;-78
2023/08/19 10:14:31;;;;;;;10.20;9.57;;;39.50;1.00;;;;;;5060695;28;21088;-77
2023/08/19 10:17:01;;;;;;;10.33;9.50;;;39.80;1.00;;;;;;5068801;28;20455;-79
2023/08/19 10:19:32;;;;;;;10.30;9.70;;;39.60;1.00;;;;;;5057566;28;20487;-75
2023/08/19 10:22:01;;;;;;;10.37;9.60;;;39.80;1.00;;;;;;5050581;28;20681;-77
2023/08/19 10:24:29;;;;;;;9.93;9.33;;;39.70;1.00;;;;;;5058847;28;20978;-75
2023/08/19 10:26:56;;;;;;;11.07;10.37;;;40.10;1.00;;;;;;5057875;28;20550;-76
2023/08/19 10:29:24;;;;;;;10.43;9.73;;;40.80;1.00;;;;;;5058323;28;20455;-76
2023/08/19 10:31:51;;;;;;;10.63;10.03;;;41.30;1.00;;;;;;5065827;28;20782;-77
2023/08/19 10:34:26;;;;;;;11.53;10.83;;;40.60;1.00;;;;;;5063118;28;20574;-76
2023/08/19 10:37:06;;;;;;;10.00;9.20;;;40.50;1.00;;;;;;5054284;28;20474;-78
2023/08/19 10:39:33;;;;;;;11.20;10.40;;;40.00;1.00;;;;;;5065823;28;20454;-76
2023/08/19 10:42:00;;;;;;;11.30;10.50;;;40.30;1.00;;;;;;5057903;28;20984;-78
2023/08/19 10:44:33;;;;;;;11.27;10.47;;;41.40;1.00;;;;;;5057935;28;20554;-78
2023/08/19 10:47:09;;;;;;;10.70;9.97;;;42.20;1.00;;;;;;5061480;28;20433;-77
2023/08/19 10:49:36;;;;;;;10.20;9.60;;;42.10;1.00;;;;;;5061607;28;20486;-78
2023/08/19 10:52:05;;;;;;;9.93;9.17;;;42.20;1.00;;;;;;5058614;28;20480;-78
2023/08/19 10:54:35;;;;;;;11.17;10.37;;;42.30;1.00;;;;;;5064045;28;20554;-79
2023/08/19 10:57:10;;;;;;;11.13;10.33;;;42.80;1.00;;;;;;5066838;28;20459;-76
2023/08/19 10:59:40;;;;;;;11.47;10.50;;;43.30;1.00;;;;;;5064744;28;20533;-76
2023/08/19 11:02:08;;;;;;;10.90;10.00;;;43.60;1.00;;;;;;5055905;28;21772;-75
2023/08/19 11:04:37;;;;;;;12.47;11.23;;;43.60;1.00;;;;;;5066969;28;20467;-76
2023/08/19 11:07:07;;;;;;;10.37;9.77;;;43.80;1.00;;;;;;5067109;28;20462;-76
2023/08/19 11:09:34;;;;;;;10.53;9.87;;;43.40;1.00;;;;;;5062382;28;20559;-76
2023/08/19 11:12:01;;;;;;;10.57;9.87;;;43.90;1.00;;;;;;5065311;28;20463;-76
2023/08/19 11:14:28;;;;;;;10.07;9.40;;;43.80;1.00;;;;;;5068342;28;20624;-76
2023/08/19 11:16:57;;;;;;;11.00;10.40;;;43.60;1.00;;;;;;5066549;28;20447;-76
2023/08/19 11:19:25;;;;;;;11.37;10.60;;;43.90;1.00;;;;;;5046374;28;20525;-80
2023/08/19 11:21:52;;;;;;;10.60;9.80;;;44.60;1.00;;;;;;5063911;28;20459;-76
2023/08/19 11:24:19;;;;;;;10.47;9.87;;;44.80;1.00;;;;;;5061439;28;20499;-79
2023/08/19 11:26:47;;;;;;;11.40;10.60;;;44.30;1.00;;;;;;5063376;28;20450;-77
2023/08/19 11:29:14;;;;;;;11.37;10.47;;;44.20;1.00;;;;;;5060848;28;20513;-75
2023/08/19 11:31:42;;;;;;;10.57;9.87;;;43.70;1.00;;;;;;5060177;28;20987;-76
2023/08/19 11:34:12;;;;;;;12.60;11.70;;;43.80;1.00;;;;;;5068729;28;20471;-76
2023/08/19 11:36:40;;;;;;;9.90;9.30;;;44.20;1.00;;;;;;5061475;28;20482;-76
2023/08/19 11:39:08;;;;;;;11.40;10.80;;;44.50;1.00;;;;;;5058878;28;20523;-75
2023/08/19 11:41:35;;;;;;;10.60;10.00;;;45.00;1.00;;;;;;5060653;28;20464;-75
2023/08/19 11:44:03;;;;;;;9.10;8.50;;;44.90;1.00;;;;;;5062841;28;20606;-76
2023/08/19 11:46:30;;;;;;;10.10;9.43;;;45.40;1.00;;;;;;5060219;28;20457;-75
2023/08/19 11:48:58;;;;;;;10.80;9.80;;;45.70;1.00;;;;;;5056781;28;20431;-75
2023/08/19 11:51:27;;;;;;;9.30;8.70;;;45.90;1.00;;;;;;5066330;28;20525;-77
2023/08/19 11:54:02;;;;;;;10.23;9.57;;;46.00;1.00;;;;;;5062994;28;20609;-75
2023/08/19 11:56:29;;;;;;;9.20;8.60;;;46.00;1.00;;;;;;5066837;28;21726;-77
2023/08/19 11:58:56;;;;;;;9.70;8.80;;;45.90;1.00;;;;;;5064653;28;20459;-76
2023/08/19 12:01:24;;;;;;;9.43;8.73;;;45.80;1.00;;;;;;5065516;28;21614;-76
2023/08/19 12:03:54;;;;;;;8.23;7.80;;;45.50;1.00;;;;;;5064262;28;20471;-75
2023/08/19 12:06:21;;;;;;;9.33;8.53;;;45.80;1.00;;;;;;5060562;28;21064;-75
2023/08/19 12:08:50;;;;;;;9.20;8.60;;;46.10;1.00;;;;;;5062989;28;20542;-74
2023/08/19 12:11:27;;;;;;;8.03;7.53;;;46.60;1.00;;;;;;5061208;28;20573;-74
2023/08/19 12:13:56;;;;;;;8.20;7.73;;;47.30;1.00;;;;;;5057486;28;20798;-76
2023/08/19 12:16:23;;;;;;;9.40;8.80;;;48.10;1.00;;;;;;5062070;28;20872;-75
2023/08/19 12:18:50;;;;;;;9.67;8.70;;;48.50;1.00;;;;;;5065948;28;20911;-75
2023/08/19 12:21:17;;;;;;;8.70;8.00;;;48.80;1.00;;;;;;5062410;28;20493;-75
2023/08/19 12:23:44;;;;;;;8.93;8.43;;;49.00;1.00;;;;;;5063275;28;20487;-76
2023/08/19 12:26:13;;;;;;;10.13;9.43;;;47.60;1.00;;;;;;5062871;28;21020;-74
2023/08/19 12:28:40;;;;;;;8.90;8.40;;;47.60;1.00;;;;;;5064857;28;20465;-74
2023/08/19 12:31:07;;;;;;;9.00;8.50;;;47.30;1.00;;;;;;5058636;28;20478;-75
2023/08/19 12:33:35;;;;;;;10.47;9.67;;;46.90;1.00;;;;;;5063745;28;20457;-74
2023/08/19 12:36:02;;;;;;;9.67;9.07;;;46.80;1.00;;;;;;5063689;28;20955;-75
2023/08/19 12:38:29;;;;;;;9.30;8.80;;;46.80;1.00;;;;;;5063324;28;20980;-75
2023/08/19 12:40:56;;;;;;;11.80;11.10;;;47.10;1.00;;;;;;5064687;28;20525;-74
2023/08/19 12:43:25;;;;;;;8.83;8.20;;;47.50;1.00;;;;;;5060537;28;20507;-76